Time;durP1;ratioP1;P1;durP2;ratioP2;P2;SDS_P1;SDS_P2;PMS_P1;PMS_P2;Temp;Humidity;BMP_temperature;BMP_pressure;BME280_temperature;BME280_humidity;BME280_pressure;Samples;Min_cycle;Max_cycle;Signal;HPM_P1;HPM_P2
2022/10/14 00:01:18;;;;;;;8.40;6.53;;;;;;;13.45;nan;100684.44;5086819;28;20554;-68
2022/10/14 00:03:43;;;;;;;11.48;8.55;;;;;;;13.42;nan;100681.25;5086377;28;20043;-69
2022/10/14 00:06:11;;;;;;;8.52;7.00;;;;;;;13.41;nan;100680.44;5093345;28;20032;-69
2022/10/14 00:08:37;;;;;;;13.70;8.55;;;;;;;13.40;nan;100681.44;5067797;28;20036;-68
2022/10/14 00:11:09;;;;;;;7.85;6.43;;;;;;;13.41;nan;100683.09;5085320;28;20032;-69
2022/10/14 00:13:35;;;;;;;9.93;5.97;;;;;;;13.41;nan;100682.25;5087288;28;20111;-69
2022/10/14 00:16:02;;;;;;;9.27;6.88;;;;;;;13.39;nan;100685.06;5086928;28;20115;-69
2022/10/14 00:18:28;;;;;;;9.90;6.63;;;;;;;13.40;nan;100691.25;5085338;28;20024;-69
2022/10/14 00:20:58;;;;;;;7.85;5.65;;;;;;;13.38;nan;100689.56;5087466;28;20146;-68
2022/10/14 00:23:24;;;;;;;8.43;6.40;;;;;;;13.35;nan;100686.44;5063189;28;20050;-69
2022/10/14 00:25:50;;;;;;;8.02;6.20;;;;;;;13.33;nan;100686.59;5087861;28;20035;-68
2022/10/14 00:28:15;;;;;;;6.35;5.07;;;;;;;13.32;nan;100690.25;5085166;28;20653;-68
2022/10/14 00:30:40;;;;;;;6.88;5.50;;;;;;;13.32;nan;100689.41;5087226;28;20088;-68
2022/10/14 00:33:06;;;;;;;6.22;5.20;;;;;;;13.31;nan;100696.53;5085537;28;20032;-68
2022/10/14 00:35:31;;;;;;;6.90;5.38;;;;;;;13.31;nan;100693.88;5085629;28;20413;-68
2022/10/14 00:37:58;;;;;;;7.20;5.75;;;;;;;13.31;nan;100693.88;5084304;28;20032;-68
2022/10/14 00:40:24;;;;;;;8.27;6.57;;;;;;;13.31;nan;100690.41;5084820;28;20040;-69
2022/10/14 00:42:49;;;;;;;9.70;7.28;;;;;;;13.30;nan;100694.03;5086145;28;20039;-68
2022/10/14 00:45:20;;;;;;;11.15;7.50;;;;;;;13.30;nan;100692.22;5086442;28;20130;-69
2022/10/14 00:47:46;;;;;;;10.32;7.55;;;;;;;13.30;nan;100686.91;5084104;28;20216;-69
2022/10/14 00:50:14;;;;;;;10.25;7.90;;;;;;;13.32;nan;100684.94;5084523;28;20040;-69
2022/10/14 00:52:39;;;;;;;9.75;7.22;;;;;;;13.32;nan;100684.94;5084878;28;20047;-69
2022/10/14 00:55:18;;;;;;;10.18;6.82;;;;;;;13.34;nan;100690.88;5086193;28;20070;-69
2022/10/14 00:57:43;;;;;;;8.90;7.00;;;;;;;13.34;nan;100679.44;5085324;28;20114;-68
2022/10/14 01:00:14;;;;;;;8.70;6.70;;;;;;;13.35;nan;100687.25;5084847;28;20611;-69
2022/10/14 01:02:40;;;;;;;9.07;6.25;;;;;;;13.36;nan;100683.59;5086079;28;20463;-68
2022/10/14 01:05:08;;;;;;;7.03;5.82;;;;;;;13.38;nan;100689.56;5087072;28;20060;-69
2022/10/14 01:07:39;;;;;;;8.88;6.32;;;;;;;13.40;nan;100685.94;5086205;28;20036;-69
2022/10/14 01:10:12;;;;;;;;;;;;;;;13.38;nan;100686.09;5069971;28;20039;-69
2022/10/14 01:12:53;;;;;;;6.60;4.95;;;;;;;13.37;nan;100689.72;5087191;28;20000;-69
2022/10/14 01:15:18;;;;;;;;;;;;;;;13.36;nan;100680.09;5088387;28;20085;-68
2022/10/14 01:18:00;;;;;;;8.05;6.20;;;;;;;13.37;nan;100682.59;5087400;28;19920;-69
2022/10/14 01:20:47;;;;;;;9.70;7.30;;;;;;;13.36;nan;100680.94;5087013;28;20028;-69
2022/10/14 01:23:33;;;;;;;11.95;8.10;;;;;;;13.36;nan;100672.13;5093642;28;20508;-69
2022/10/14 01:26:23;;;;;;;12.38;7.63;;;;;;;13.37;nan;100673.78;5088773;28;20119;-69
2022/10/14 01:29:12;;;;;;;10.32;7.75;;;;;;;13.38;nan;100672.81;5086828;28;20512;-68
2022/10/14 01:31:44;;;;;;;13.40;7.53;;;;;;;13.43;nan;100672.31;5091320;28;20081;-69
2022/10/14 01:34:12;;;;;;;9.82;7.20;;;;;;;13.44;nan;100665.97;5090167;28;20426;-69
2022/10/14 01:36:47;;;;;;;10.45;7.45;;;;;;;13.43;nan;100659.84;5065541;28;20043;-69
2022/10/14 01:39:24;;;;;;;8.23;6.65;;;;;;;13.45;nan;100662.34;5089719;28;20032;-69
2022/10/14 01:42:15;;;;;;;11.10;7.43;;;;;;;13.46;nan;100664.00;5072230;28;20206;-68
2022/10/14 01:44:46;;;;;;;11.27;7.13;;;;;;;13.44;nan;100663.31;5088504;28;20035;-68
2022/10/14 01:47:16;;;;;;;8.85;7.47;;;;;;;13.43;nan;100664.34;5070589;28;20032;-69
2022/10/14 01:49:52;;;;;;;11.73;7.95;;;;;;;13.42;nan;100660.00;5090112;28;20039;-68
2022/10/14 01:52:22;;;;;;;10.02;7.78;;;;;;;13.43;nan;100649.22;5069240;28;20032;-68
2022/10/14 01:54:52;;;;;;;11.18;8.35;;;;;;;13.42;nan;100654.69;5081714;28;20401;-69
2022/10/14 01:57:23;;;;;;;11.90;8.30;;;;;;;13.44;nan;100658.03;5083524;28;20405;-68
2022/10/14 01:59:50;;;;;;;11.73;8.02;;;;;;;13.47;nan;100661.19;5071562;28;20043;-69
2022/10/14 02:02:16;;;;;;;10.93;7.10;;;;;;;13.47;nan;100652.38;5088646;28;20243;-69
2022/10/14 02:04:41;;;;;;;10.35;7.18;;;;;;;13.46;nan;100651.53;5071167;28;20040;-68
2022/10/14 02:07:26;;;;;;;12.55;7.63;;;;;;;13.43;nan;100654.53;5089760;28;20036;-68
2022/10/14 02:10:28;;;;;;;10.23;7.38;;;;;;;13.42;nan;100641.41;5087996;28;20078;-68
2022/10/14 02:13:21;;;;;;;9.52;7.20;;;;;;;13.37;nan;100640.13;5086466;28;20043;-69
2022/10/14 02:16:07;;;;;;;10.43;7.88;;;;;;;13.35;nan;100646.59;5089179;28;20040;-68
2022/10/14 02:18:48;;;;;;;9.27;7.47;;;;;;;13.32;nan;100637.13;5087762;28;20039;-68
2022/10/14 02:21:22;;;;;;;10.00;7.57;;;;;;;13.31;nan;100629.31;5088224;28;20067;-69
2022/10/14 02:24:08;;;;;;;8.52;6.60;;;;;;;13.31;nan;100624.84;5087392;28;20070;-68
2022/10/14 02:26:35;;;;;;;10.82;7.25;;;;;;;13.30;nan;100617.88;5065760;28;20062;-69
2022/10/14 02:29:02;;;;;;;10.00;7.18;;;;;;;13.29;nan;100618.03;5076201;28;20044;-69
2022/10/14 02:31:29;;;;;;;10.45;7.45;;;;;;;13.29;nan;100623.34;5066450;28;20036;-69
2022/10/14 02:33:59;;;;;;;9.07;7.88;;;;;;;13.25;nan;100614.00;5088575;28;20046;-69
2022/10/14 02:36:26;;;;;;;12.07;7.55;;;;;;;13.25;nan;100620.19;5087483;28;20042;-68
2022/10/14 02:38:55;;;;;;;9.65;7.47;;;;;;;13.24;nan;100607.06;5087619;28;20508;-68
2022/10/14 02:41:23;;;;;;;11.90;8.20;;;;;;;13.21;nan;100612.72;5088672;28;20385;-68
2022/10/14 02:43:48;;;;;;;11.13;8.20;;;;;;;13.17;nan;100606.88;5086889;28;20039;-68
2022/10/14 02:46:14;;;;;;;13.38;8.82;;;;;;;13.15;nan;100614.19;5086460;28;20616;-69
2022/10/14 02:48:39;;;;;;;14.20;9.55;;;;;;;13.06;nan;100601.91;5091513;28;20295;-68
2022/10/14 02:51:05;;;;;;;14.13;9.50;;;;;;;13.05;nan;100602.91;5068787;28;20423;-68
2022/10/14 02:53:30;;;;;;;13.85;10.68;;;;;;;13.01;nan;100598.91;5087288;28;20498;-68
2022/10/14 02:55:56;;;;;;;15.82;9.70;;;;;;;13.03;nan;100591.63;5086274;28;20500;-68
2022/10/14 02:58:21;;;;;;;17.20;11.98;;;;;;;12.90;nan;100590.28;5086899;28;20116;-68
2022/10/14 03:00:48;;;;;;;17.58;11.73;;;;;;;12.93;nan;100586.47;5087918;28;20025;-68
2022/10/14 03:03:13;;;;;;;18.08;11.90;;;;;;;12.90;nan;100585.00;5069929;28;20040;-68
2022/10/14 03:05:39;;;;;;;14.77;10.63;;;;;;;12.92;nan;100585.66;5074155;28;20034;-69
2022/10/14 03:08:04;;;;;;;15.05;11.02;;;;;;;12.90;nan;100578.84;5085890;28;20510;-68
2022/10/14 03:10:29;;;;;;;15.93;12.18;;;;;;;12.91;nan;100575.19;5087696;28;20055;-68
2022/10/14 03:12:54;;;;;;;14.67;11.53;;;;;;;12.90;nan;100578.84;5086862;28;20067;-68
2022/10/14 03:15:20;;;;;;;14.13;11.00;;;;;;;12.87;nan;100581.81;5086907;28;20286;-68
2022/10/14 03:17:45;;;;;;;14.07;10.38;;;;;;;12.87;nan;100571.19;5086195;28;20389;-68
2022/10/14 03:20:10;;;;;;;16.50;11.93;;;;;;;12.85;nan;100573.22;5087038;28;20040;-68
2022/10/14 03:22:36;;;;;;;17.27;11.85;;;;;;;12.84;nan;100564.41;5086700;28;20282;-68
2022/10/14 03:25:01;;;;;;;16.08;11.38;;;;;;;12.86;nan;100564.25;5088728;28;20066;-69
2022/10/14 03:27:27;;;;;;;15.48;12.27;;;;;;;12.83;nan;100559.28;5066370;28;21309;-68
2022/10/14 03:29:52;;;;;;;17.20;12.35;;;;;;;12.83;nan;100565.41;5085516;28;20048;-68
2022/10/14 03:32:17;;;;;;;18.00;12.20;;;;;;;12.83;nan;100546.03;5087013;28;20028;-68
2022/10/14 03:34:42;;;;;;;18.73;12.10;;;;;;;12.83;nan;100554.81;5087098;28;20059;-69
2022/10/14 03:37:08;;;;;;;16.60;11.90;;;;;;;12.81;nan;100548.00;5068616;28;20056;-68
2022/10/14 03:39:33;;;;;;;17.35;11.43;;;;;;;12.80;nan;100547.19;5085842;28;20070;-68
2022/10/14 03:41:59;;;;;;;15.73;11.00;;;;;;;12.81;nan;100548.81;5087679;28;20064;-68
2022/10/14 03:44:24;;;;;;;17.95;10.05;;;;;;;12.83;nan;100552.16;5085764;28;20803;-68
2022/10/14 03:46:49;;;;;;;15.13;10.07;;;;;;;12.82;nan;100547.00;5087298;28;20040;-68
2022/10/14 03:49:14;;;;;;;13.90;9.83;;;;;;;12.82;nan;100545.16;5089315;28;20629;-68
2022/10/14 03:51:40;;;;;;;17.08;11.13;;;;;;;12.82;nan;100542.50;5087063;28;20282;-69
2022/10/14 03:54:05;;;;;;;16.75;10.32;;;;;;;12.81;nan;100534.72;5086563;28;20055;-68
2022/10/14 03:56:30;;;;;;;14.52;10.32;;;;;;;12.83;nan;100540.72;5086252;28;20032;-69
2022/10/14 03:58:56;;;;;;;13.02;9.30;;;;;;;12.83;nan;100536.22;5085009;28;20527;-68
2022/10/14 04:01:21;;;;;;;15.55;10.07;;;;;;;12.82;nan;100534.56;5086614;28;20044;-68
2022/10/14 04:03:47;;;;;;;13.55;10.02;;;;;;;12.82;nan;100531.91;5087087;28;20414;-69
2022/10/14 04:06:13;;;;;;;11.57;9.10;;;;;;;12.84;nan;100527.25;5086894;28;20127;-68
2022/10/14 04:08:39;;;;;;;14.57;8.23;;;;;;;12.86;nan;100530.56;5085353;28;20044;-68
2022/10/14 04:11:05;;;;;;;15.02;10.05;;;;;;;12.88;nan;100530.41;5088402;28;20503;-68
2022/10/14 04:13:30;;;;;;;15.27;9.77;;;;;;;12.90;nan;100523.13;5086017;28;20036;-68
2022/10/14 04:15:56;;;;;;;13.68;8.85;;;;;;;12.94;nan;100535.03;5086935;28;20028;-68
2022/10/14 04:18:21;;;;;;;12.53;8.27;;;;;;;12.96;nan;100531.22;5083790;28;20332;-68
2022/10/14 04:20:46;;;;;;;13.55;9.02;;;;;;;12.99;nan;100531.88;5085350;28;20285;-68
2022/10/14 04:23:12;;;;;;;13.48;9.15;;;;;;;12.97;nan;100526.78;5090434;28;20044;-68
2022/10/14 04:25:38;;;;;;;13.15;8.88;;;;;;;12.95;nan;100521.63;5088473;28;20056;-68
2022/10/14 04:28:03;;;;;;;12.65;8.70;;;;;;;12.96;nan;100515.31;5081526;28;20043;-69
2022/10/14 04:30:28;;;;;;;10.20;7.50;;;;;;;13.01;nan;100516.63;5079178;28;20427;-68
2022/10/14 04:32:54;;;;;;;10.53;7.50;;;;;;;13.01;nan;100522.75;5070278;28;20438;-68
2022/10/14 04:35:19;;;;;;;11.50;7.37;;;;;;;13.05;nan;100523.28;5088316;28;20274;-68
2022/10/14 04:37:44;;;;;;;16.23;8.50;;;;;;;13.05;nan;100517.97;5087896;28;20326;-68
2022/10/14 04:40:10;;;;;;;14.53;8.47;;;;;;;13.07;nan;100522.09;5087553;28;20382;-68
2022/10/14 04:42:35;;;;;;;13.23;9.40;;;;;;;13.08;nan;100525.56;5072926;28;20298;-68
2022/10/14 04:45:00;;;;;;;12.17;8.97;;;;;;;13.09;nan;100514.81;5069704;28;20036;-68
2022/10/14 04:47:26;;;;;;;13.35;9.60;;;;;;;13.10;nan;100515.63;5088422;28;20266;-68
2022/10/14 04:49:51;;;;;;;15.10;9.75;;;;;;;13.12;nan;100508.31;5092543;28;20433;-68
2022/10/14 04:52:16;;;;;;;16.25;10.40;;;;;;;13.13;nan;100510.81;5080332;28;20531;-68
2022/10/14 04:54:41;;;;;;;14.13;10.40;;;;;;;13.15;nan;100500.84;5087017;28;20435;-68
2022/10/14 04:57:08;;;;;;;12.82;9.55;;;;;;;13.21;nan;100503.84;5088032;28;20036;-68
2022/10/14 04:59:34;;;;;;;12.30;8.82;;;;;;;13.20;nan;100488.88;5085388;28;20496;-68
2022/10/14 05:01:59;;;;;;;12.52;9.35;;;;;;;13.20;nan;100489.72;5086080;28;20036;-68
2022/10/14 05:04:24;;;;;;;13.85;9.90;;;;;;;13.24;nan;100476.94;5085482;28;20175;-68
2022/10/14 05:06:50;;;;;;;14.90;11.18;;;;;;;13.25;nan;100483.91;5091171;28;20173;-69
2022/10/14 05:09:15;;;;;;;18.20;11.57;;;;;;;13.28;nan;100478.28;5067648;28;20081;-68
2022/10/14 05:11:40;;;;;;;17.13;11.05;;;;;;;13.29;nan;100479.94;5084852;28;20062;-69
2022/10/14 05:14:06;;;;;;;13.18;9.43;;;;;;;13.31;nan;100473.47;5083870;28;20032;-69
2022/10/14 05:16:31;;;;;;;17.27;11.45;;;;;;;13.31;nan;100476.09;5084072;28;20043;-68
2022/10/14 05:18:56;;;;;;;15.77;11.05;;;;;;;13.33;nan;100471.47;5084886;28;20036;-68
2022/10/14 05:21:21;;;;;;;15.32;11.00;;;;;;;13.36;nan;100470.28;5087937;28;20500;-69
2022/10/14 05:23:47;;;;;;;13.23;9.48;;;;;;;13.40;nan;100460.16;5092335;28;20046;-69
2022/10/14 05:26:12;;;;;;;16.45;11.55;;;;;;;13.40;nan;100460.16;5085876;28;20032;-69
2022/10/14 05:28:37;;;;;;;17.73;11.98;;;;;;;13.40;nan;100462.81;5084060;28;20040;-68
2022/10/14 05:31:04;;;;;;;17.02;10.70;;;;;;;13.45;nan;100466.59;5081823;28;20121;-68
2022/10/14 05:33:30;;;;;;;15.88;11.73;;;;;;;13.44;nan;100464.94;5085527;28;20035;-68
2022/10/14 05:35:55;;;;;;;15.25;10.60;;;;;;;13.49;nan;100467.06;5078187;28;20444;-68
2022/10/14 05:38:20;;;;;;;13.35;10.23;;;;;;;13.51;nan;100468.56;5060706;28;20127;-68
2022/10/14 05:40:56;;;;;;;14.93;10.50;;;;;;;13.53;nan;100463.09;5080836;28;20382;-67
2022/10/14 05:43:25;;;;;;;18.98;11.18;;;;;;;13.54;nan;100454.13;5075914;28;20048;-68
2022/10/14 05:45:51;;;;;;;15.43;10.95;;;;;;;13.56;nan;100454.75;5081630;28;20235;-68
2022/10/14 05:48:17;;;;;;;16.50;10.48;;;;;;;13.59;nan;100457.91;5087213;28;20051;-68
2022/10/14 05:50:43;;;;;;;18.30;10.90;;;;;;;13.62;nan;100456.75;5087835;28;20032;-68
2022/10/14 05:53:09;;;;;;;15.40;10.45;;;;;;;13.63;nan;100447.75;5087691;28;20032;-68
2022/10/14 05:55:34;;;;;;;11.77;8.90;;;;;;;13.67;nan;100457.03;5070068;28;20078;-68
2022/10/14 05:58:00;;;;;;;12.75;8.57;;;;;;;13.68;nan;100445.44;5087657;28;20543;-68
2022/10/14 06:00:25;;;;;;;12.20;8.25;;;;;;;13.70;nan;100445.22;5087673;28;20036;-68
2022/10/14 06:02:50;;;;;;;11.15;7.90;;;;;;;13.73;nan;100455.50;5087830;28;20040;-68
2022/10/14 06:05:16;;;;;;;12.38;8.32;;;;;;;13.75;nan;100453.50;5078192;28;20493;-68
2022/10/14 06:07:41;;;;;;;10.38;8.38;;;;;;;13.78;nan;100454.00;5094891;28;20146;-68
2022/10/14 06:10:07;;;;;;;11.13;8.18;;;;;;;13.81;nan;100452.81;5086162;28;20032;-69
2022/10/14 06:12:32;;;;;;;13.30;8.80;;;;;;;13.84;nan;100452.47;5087631;28;20037;-68
2022/10/14 06:14:58;;;;;;;11.00;8.32;;;;;;;13.88;nan;100461.75;5069770;28;20435;-68
2022/10/14 06:17:23;;;;;;;11.57;7.60;;;;;;;13.91;nan;100457.91;5090720;28;20067;-68
2022/10/14 06:19:48;;;;;;;9.50;7.88;;;;;;;13.94;nan;100460.22;5091116;28;20401;-68
2022/10/14 06:22:13;;;;;;;11.82;8.50;;;;;;;13.93;nan;100453.25;5090287;28;20138;-68
2022/10/14 06:24:39;;;;;;;9.02;7.20;;;;;;;13.96;nan;100452.91;5095930;28;20035;-68
2022/10/14 06:27:04;;;;;;;10.38;7.07;;;;;;;13.97;nan;100455.38;5089619;28;20032;-68
2022/10/14 06:29:36;;;;;;;11.55;7.90;;;;;;;14.00;nan;100448.88;5074871;28;20131;-68
2022/10/14 06:32:02;;;;;;;10.40;6.63;;;;;;;14.05;nan;100451.84;5087534;28;20135;-68
2022/10/14 06:34:27;;;;;;;8.90;6.50;;;;;;;14.07;nan;100452.50;5086352;28;20130;-68
2022/10/14 06:37:13;;;;;;;7.90;6.28;;;;;;;14.11;nan;100460.94;5069576;28;20040;-70
2022/10/14 06:39:40;;;;;;;10.05;6.00;;;;;;;14.13;nan;100457.09;5085923;28;20059;-69
2022/10/14 06:42:06;;;;;;;7.35;5.38;;;;;;;14.15;nan;100451.59;5090078;28;20032;-69
2022/10/14 06:44:31;;;;;;;9.68;6.38;;;;;;;14.17;nan;100455.75;5069893;28;20090;-69
2022/10/14 06:46:56;;;;;;;6.85;5.60;;;;;;;14.21;nan;100458.91;5088123;28;20039;-69
2022/10/14 06:49:22;;;;;;;14.67;6.50;;;;;;;14.22;nan;100461.34;5104940;28;20084;-69
2022/10/14 06:51:47;;;;;;;11.00;6.45;;;;;;;14.22;nan;100450.72;5093223;28;20290;-69
2022/10/14 06:54:12;;;;;;;10.13;6.15;;;;;;;14.26;nan;100461.03;5089867;28;20152;-69
2022/10/14 06:56:37;;;;;;;13.20;6.22;;;;;;;14.31;nan;100466.63;5077558;28;20174;-69
2022/10/14 06:59:04;;;;;;;12.40;6.43;;;;;;;14.31;nan;100456.81;5086291;28;20035;-69
2022/10/14 07:01:29;;;;;;;9.52;6.25;;;;;;;14.34;nan;100459.09;5089687;28;20279;-68
2022/10/14 07:03:55;;;;;;;8.63;6.15;;;;;;;14.35;nan;100458.13;5071824;28;20503;-69
2022/10/14 07:06:20;;;;;;;8.90;6.60;;;;;;;14.37;nan;100456.13;5095653;28;20036;-69
2022/10/14 07:08:45;;;;;;;8.75;5.55;;;;;;;14.40;nan;100460.25;5088494;28;20052;-69
2022/10/14 07:11:11;;;;;;;8.77;5.63;;;;;;;14.42;nan;100460.91;5083366;28;20036;-69
2022/10/14 07:13:37;;;;;;;11.00;6.20;;;;;;;14.43;nan;100460.69;5089634;28;20413;-69
2022/10/14 07:16:03;;;;;;;8.00;5.80;;;;;;;14.48;nan;100454.03;5078964;28;20622;-69
2022/10/14 07:18:29;;;;;;;7.47;5.78;;;;;;;14.51;nan;100453.66;5069052;28;20029;-69
2022/10/14 07:20:54;;;;;;;8.30;6.45;;;;;;;14.58;nan;100450.13;5086454;28;20035;-69
2022/10/14 07:23:19;;;;;;;10.15;6.07;;;;;;;14.65;nan;100448.41;5103626;28;20036;-69
2022/10/14 07:25:44;;;;;;;9.70;6.72;;;;;;;14.72;nan;100447.69;5089831;28;20389;-69
2022/10/14 07:28:10;;;;;;;8.57;6.43;;;;;;;14.73;nan;100446.66;5088283;28;20118;-69
2022/10/14 07:30:35;;;;;;;6.93;5.30;;;;;;;14.78;nan;100446.97;5071470;28;20401;-69
2022/10/14 07:33:00;;;;;;;9.85;6.00;;;;;;;14.86;nan;100446.88;5090137;28;20174;-69
2022/10/14 07:35:26;;;;;;;8.85;5.80;;;;;;;14.99;nan;100452.44;5090098;28;20385;-69
2022/10/14 07:37:52;;;;;;;9.23;6.15;;;;;;;15.05;nan;100441.03;5063335;28;20511;-70
2022/10/14 07:40:18;;;;;;;9.95;5.93;;;;;;;15.14;nan;100440.94;5089419;28;20032;-69
2022/10/14 07:42:43;;;;;;;9.95;5.90;;;;;;;15.15;nan;100445.25;5071801;28;20028;-69
2022/10/14 07:45:09;;;;;;;9.32;6.13;;;;;;;15.13;nan;100444.59;5075501;28;20029;-69
2022/10/14 07:47:34;;;;;;;8.50;5.68;;;;;;;15.12;nan;100438.47;5069839;28;20504;-69
2022/10/14 07:50:01;;;;;;;9.20;5.43;;;;;;;15.13;nan;100439.28;5099183;28;20043;-69
2022/10/14 07:52:26;;;;;;;6.68;4.82;;;;;;;15.14;nan;100446.28;5089501;28;20039;-68
2022/10/14 07:54:53;;;;;;;7.57;5.07;;;;;;;15.13;nan;100442.75;5090368;28;20135;-69
2022/10/14 07:57:18;;;;;;;6.40;4.85;;;;;;;15.16;nan;100438.91;5090581;28;20111;-69
2022/10/14 07:59:45;;;;;;;7.00;5.22;;;;;;;15.16;nan;100439.75;5089885;28;20447;-69
2022/10/14 08:02:11;;;;;;;9.02;6.28;;;;;;;15.15;nan;100438.09;5089575;28;20552;-69
2022/10/14 08:04:36;;;;;;;10.52;6.68;;;;;;;15.16;nan;100436.25;5093125;28;20036;-69
2022/10/14 08:07:03;;;;;;;12.23;6.10;;;;;;;15.19;nan;100435.91;5095301;28;20039;-69
2022/10/14 08:09:29;;;;;;;7.53;5.93;;;;;;;15.20;nan;100437.53;5090334;28;20028;-69
2022/10/14 08:11:54;;;;;;;9.73;6.38;;;;;;;15.17;nan;100441.41;5090205;28;20058;-69
2022/10/14 08:14:19;;;;;;;8.93;6.20;;;;;;;15.20;nan;100437.53;5089960;28;20406;-69
2022/10/14 08:16:45;;;;;;;9.02;6.22;;;;;;;15.25;nan;100437.81;5091022;28;20085;-69
2022/10/14 08:19:11;;;;;;;10.57;6.07;;;;;;;15.26;nan;100431.47;5081717;28;20074;-69
2022/10/14 08:21:36;;;;;;;6.50;5.50;;;;;;;15.28;nan;100438.28;5082337;28;20028;-69
2022/10/14 08:24:01;;;;;;;7.50;5.10;;;;;;;15.28;nan;100430.28;5098635;28;20497;-69
2022/10/14 08:26:38;;;;;;;8.73;5.32;;;;;;;15.29;nan;100441.75;5090222;28;20107;-69
2022/10/14 08:29:05;;;;;;;8.70;5.20;;;;;;;15.30;nan;100438.06;5089730;28;20036;-69
2022/10/14 08:31:32;;;;;;;7.80;5.10;;;;;;;15.32;nan;100436.06;5071102;28;20039;-69
2022/10/14 08:33:58;;;;;;;5.15;4.38;;;;;;;15.38;nan;100437.16;5089370;28;20024;-69
2022/10/14 08:36:23;;;;;;;7.88;4.82;;;;;;;15.37;nan;100435.50;5071506;28;20039;-69
2022/10/14 08:38:51;;;;;;;7.15;4.60;;;;;;;15.38;nan;100435.31;5089837;28;20055;-69
2022/10/14 08:41:42;;;;;;;6.63;5.00;;;;;;;15.38;nan;100438.00;5089813;28;20548;-69
2022/10/14 08:44:19;;;;;;;8.02;4.78;;;;;;;15.43;nan;100438.25;5089560;28;20028;-70
2022/10/14 08:46:57;;;;;;;6.55;4.55;;;;;;;15.47;nan;100442.22;5090230;28;20399;-69
2022/10/14 08:49:25;;;;;;;6.30;4.60;;;;;;;15.58;nan;100438.22;5105160;28;20032;-69
2022/10/14 08:51:56;;;;;;;7.13;5.03;;;;;;;15.67;nan;100434.44;5109981;28;20062;-69
2022/10/14 08:54:31;;;;;;;6.15;4.13;;;;;;;15.77;nan;100436.84;5110557;28;20430;-69
2022/10/14 08:56:58;;;;;;;8.20;5.10;;;;;;;15.84;nan;100426.25;5111495;28;20031;-69
2022/10/14 08:59:25;;;;;;;6.82;4.35;;;;;;;15.89;nan;100432.66;5108907;28;20024;-69
2022/10/14 09:02:11;;;;;;;5.68;4.03;;;;;;;15.92;nan;100428.78;5090395;28;20081;-69
2022/10/14 09:04:36;;;;;;;6.28;4.22;;;;;;;15.93;nan;100427.78;5107319;28;20067;-69
2022/10/14 09:07:03;;;;;;;5.78;3.95;;;;;;;15.93;nan;100431.28;5092896;28;20115;-69
2022/10/14 09:09:40;;;;;;;5.13;3.58;;;;;;;15.93;nan;100428.63;5087534;28;20093;-69
2022/10/14 09:12:11;;;;;;;5.88;3.80;;;;;;;15.91;nan;100419.16;5087602;28;20060;-69
2022/10/14 09:14:43;;;;;;;5.00;3.67;;;;;;;15.93;nan;100422.47;5088107;28;20528;-69
2022/10/14 09:17:16;;;;;;;6.32;3.83;;;;;;;15.97;nan;100420.22;5087894;28;20036;-69
2022/10/14 09:19:49;;;;;;;5.20;3.92;;;;;;;16.03;nan;100417.63;5087572;28;20036;-69
2022/10/14 09:22:14;;;;;;;5.68;3.47;;;;;;;16.15;nan;100423.28;5098708;28;20027;-69
2022/10/14 09:24:41;;;;;;;5.60;3.55;;;;;;;16.24;nan;100408.81;5069324;28;20029;-68
2022/10/14 09:27:14;;;;;;;6.18;3.80;;;;;;;16.30;nan;100417.88;5067882;28;20032;-69
2022/10/14 09:29:49;;;;;;;5.75;3.20;;;;;;;16.36;nan;100401.09;5067517;28;20039;-69
2022/10/14 09:32:25;;;;;;;4.45;3.30;;;;;;;16.38;nan;100404.41;5067139;28;20029;-69
2022/10/14 09:34:51;;;;;;;5.85;3.22;;;;;;;16.45;nan;100402.63;5067648;28;20059;-69
2022/10/14 09:37:22;;;;;;;7.03;3.70;;;;;;;16.51;nan;100393.81;5067814;28;20032;-69
2022/10/14 09:39:49;;;;;;;6.95;3.63;;;;;;;16.59;nan;100402.72;5067641;28;20043;-70
2022/10/14 09:42:21;;;;;;;5.53;3.28;;;;;;;16.64;nan;100395.78;5067239;28;20106;-70
2022/10/14 09:45:09;;;;;;;4.68;3.45;;;;;;;16.75;nan;100389.06;5067836;28;20322;-69
2022/10/14 09:47:52;;;;;;;5.18;3.00;;;;;;;16.87;nan;100381.38;5067574;28;20379;-70
2022/10/14 09:50:24;;;;;;;5.60;3.40;;;;;;;17.07;nan;100384.97;5066420;28;20485;-70
2022/10/14 09:52:58;;;;;;;5.22;3.20;;;;;;;17.24;nan;100384.66;5053359;28;20085;-69
2022/10/14 09:55:23;;;;;;;7.15;3.28;;;;;;;17.31;nan;100378.31;5053957;28;20102;-69
2022/10/14 09:58:03;;;;;;;5.60;3.28;;;;;;;17.30;nan;100368.63;5073485;28;20032;-70
2022/10/14 10:00:30;;;;;;;4.57;2.80;;;;;;;17.32;nan;100371.09;5071898;28;20037;-69
2022/10/14 10:02:55;;;;;;;7.20;3.10;;;;;;;17.40;nan;100355.72;5091459;28;20101;-69
2022/10/14 10:05:33;;;;;;;4.80;3.17;;;;;;;17.50;nan;100363.38;5068367;28;20443;-70
2022/10/14 10:08:12;;;;;;;6.45;3.70;;;;;;;17.58;nan;100370.38;5092226;28;20063;-69
2022/10/14 10:10:38;;;;;;;5.10;3.20;;;;;;;17.55;nan;100355.56;5080956;28;20242;-69
2022/10/14 10:13:20;;;;;;;5.95;3.30;;;;;;;17.62;nan;100355.56;5080822;28;20037;-70
2022/10/14 10:15:59;;;;;;;6.93;2.63;;;;;;;17.67;nan;100347.78;5089389;28;20051;-70
2022/10/14 10:18:25;;;;;;;5.03;2.95;;;;;;;17.67;nan;100346.94;5069018;28;20036;-70
2022/10/14 10:21:01;;;;;;;5.60;3.00;;;;;;;17.64;nan;100348.19;5068441;28;20047;-70
2022/10/14 10:23:27;;;;;;;5.03;2.95;;;;;;;17.65;nan;100344.47;5095125;28;20118;-69
2022/10/14 10:25:53;;;;;;;6.50;3.20;;;;;;;17.67;nan;100353.13;5090687;28;20040;-70
2022/10/14 10:28:30;;;;;;;6.45;2.90;;;;;;;17.65;nan;100349.00;5087385;28;20036;-70
2022/10/14 10:31:18;;;;;;;5.55;3.20;;;;;;;17.53;nan;100343.41;5069666;28;20408;-69
2022/10/14 10:33:46;;;;;;;6.78;3.17;;;;;;;17.43;nan;100338.47;5088634;28;20599;-69
2022/10/14 10:36:21;;;;;;;4.10;2.88;;;;;;;17.50;nan;100347.31;5071406;28;20040;-69
2022/10/14 10:39:27;;;;;;;6.70;2.67;;;;;;;17.53;nan;100336.22;5085485;28;20089;-69
2022/10/14 10:42:14;;;;;;;3.97;2.45;;;;;;;17.53;nan;100338.06;5090394;28;20028;-69
2022/10/14 10:45:10;;;;;;;6.68;2.85;;;;;;;17.46;nan;100334.56;5089231;28;20060;-69
2022/10/14 10:47:42;;;;;;;6.18;3.15;;;;;;;17.38;nan;100332.91;5088840;28;20032;-69
2022/10/14 10:50:16;;;;;;;3.92;2.53;;;;;;;17.31;nan;100327.53;5086154;28;20093;-69
2022/10/14 10:52:48;;;;;;;4.97;2.83;;;;;;;17.20;nan;100322.75;5089705;28;20032;-69
2022/10/14 10:55:52;;;;;;;3.75;2.60;;;;;;;17.09;nan;100313.47;5091675;28;20123;-69
2022/10/14 10:58:36;;;;;;;5.70;3.15;;;;;;;17.16;nan;100316.16;5070292;28;20032;-69
2022/10/14 11:01:17;;;;;;;5.68;2.88;;;;;;;17.24;nan;100317.84;5101574;28;20035;-69
2022/10/14 11:04:21;;;;;;;4.43;2.70;;;;;;;17.13;nan;100321.91;5109885;28;20040;-69
2022/10/14 11:13:00;;;;;;;6.10;3.05;;;;;;;15.96;nan;100322.59;5080653;28;20051;-69
2022/10/14 11:15:45;;;;;;;5.65;2.90;;;;;;;15.78;nan;100323.03;5097032;28;20437;-69
2022/10/14 11:18:25;;;;;;;5.43;3.00;;;;;;;15.68;nan;100325.97;5087994;28;20419;-70
2022/10/14 11:21:10;;;;;;;5.43;3.10;;;;;;;15.59;nan;100311.13;5089559;28;20028;-69
2022/10/14 11:23:47;;;;;;;5.35;2.80;;;;;;;15.61;nan;100315.28;5065952;28;20039;-69
2022/10/14 11:26:45;;;;;;;3.85;2.38;;;;;;;15.71;nan;100307.81;5081387;28;20120;-69
2022/10/14 11:29:38;;;;;;;4.63;3.08;;;;;;;15.76;nan;100307.22;5075637;28;20405;-69
2022/10/14 11:32:36;;;;;;;7.55;3.33;;;;;;;15.69;nan;100295.66;5090231;28;20046;-69
2022/10/14 11:35:15;;;;;;;7.18;3.10;;;;;;;15.58;nan;100290.81;5087382;28;20063;-69
2022/10/14 11:37:54;;;;;;;4.68;2.90;;;;;;;15.47;nan;100282.31;5066118;28;20451;-69
2022/10/14 11:40:31;;;;;;;4.65;3.17;;;;;;;15.51;nan;100283.56;5098846;28;20035;-69
2022/10/14 11:43:31;;;;;;;4.40;2.80;;;;;;;15.54;nan;100286.88;5093723;28;20051;-68
2022/10/14 11:46:06;;;;;;;5.43;3.00;;;;;;;15.57;nan;100283.84;5089028;28;20040;-69
2022/10/14 11:48:45;;;;;;;4.43;3.00;;;;;;;15.51;nan;100272.91;5099517;28;20030;-69
2022/10/14 11:51:36;;;;;;;5.25;3.03;;;;;;;15.55;nan;100267.22;5091204;28;20036;-69
2022/10/14 11:54:16;;;;;;;6.22;3.38;;;;;;;15.43;nan;100274.91;5108758;28;20086;-69
2022/10/14 11:57:01;;;;;;;7.05;3.53;;;;;;;15.39;nan;100271.78;5066625;28;20042;-69